Time;durP1;ratioP1;P1;durP2;ratioP2;P2;SDS_P1;SDS_P2;PMS_P1;PMS_P2;Temp;Humidity;BMP_temperature;BMP_pressure;BME280_temperature;BME280_humidity;BME280_pressure;Samples;Min_cycle;Max_cycle;Signal;HPM_P1;HPM_P2
2023/06/02 00:01:31;;;;;;;5.30;3.30;;;19.70;73.00;;;;;;6038519;23;20401;-80
2023/06/02 00:04:01;;;;;;;4.00;3.60;;;19.70;73.10;;;;;;6062364;23;20407;-80
2023/06/02 00:06:33;;;;;;;5.03;3.55;;;19.70;73.50;;;;;;6064008;23;20870;-80
2023/06/02 00:09:04;;;;;;;4.22;3.22;;;19.70;73.20;;;;;;6062637;23;20474;-79
2023/06/02 00:11:36;;;;;;;5.10;3.70;;;19.70;73.00;;;;;;6039153;23;20405;-79
2023/06/02 00:14:05;;;;;;;5.20;3.75;;;19.70;73.10;;;;;;6038069;23;20386;-80
2023/06/02 00:16:41;;;;;;;4.72;3.85;;;19.70;73.30;;;;;;6039253;23;20750;-80
2023/06/02 00:19:11;;;;;;;4.28;3.55;;;19.70;73.80;;;;;;6037901;23;20390;-79
2023/06/02 00:21:39;;;;;;;4.95;3.40;;;19.60;74.20;;;;;;6039229;23;20394;-80
2023/06/02 00:24:06;;;;;;;5.65;3.42;;;19.60;74.60;;;;;;6038474;23;20391;-80
2023/06/02 00:26:33;;;;;;;4.88;3.40;;;19.60;74.40;;;;;;6038681;23;20387;-80
2023/06/02 00:29:00;;;;;;;4.47;3.50;;;19.60;74.00;;;;;;6062097;23;20383;-80
2023/06/02 00:31:27;;;;;;;5.38;3.67;;;19.60;73.80;;;;;;6062444;23;20375;-79
2023/06/02 00:33:54;;;;;;;4.05;3.60;;;19.60;73.00;;;;;;6063785;23;20398;-79
2023/06/02 00:36:21;;;;;;;3.65;3.28;;;19.60;73.70;;;;;;6061599;23;20371;-79
2023/06/02 00:38:48;;;;;;;4.35;3.53;;;19.60;74.60;;;;;;6062591;23;20383;-79
2023/06/02 00:41:15;;;;;;;5.40;3.70;;;19.50;74.50;;;;;;6061648;23;20738;-79
2023/06/02 00:43:42;;;;;;;4.72;3.75;;;19.50;74.70;;;;;;6062042;23;20386;-78
2023/06/02 00:46:09;;;;;;;7.32;4.50;;;19.50;75.10;;;;;;6061745;23;20383;-79
2023/06/02 00:48:36;;;;;;;4.57;3.42;;;19.40;74.90;;;;;;6062426;23;20649;-79
2023/06/02 00:51:04;;;;;;;4.78;3.50;;;19.40;75.10;;;;;;6061555;23;20383;-79
2023/06/02 00:53:32;;;;;;;4.88;3.38;;;19.40;75.40;;;;;;6063341;23;20379;-79
2023/06/02 00:56:00;;;;;;;4.40;4.00;;;19.40;75.80;;;;;;6062836;23;20386;-79
2023/06/02 00:58:28;;;;;;;4.95;3.55;;;19.40;75.30;;;;;;6038139;23;21120;-80
2023/06/02 01:00:55;;;;;;;4.35;3.90;;;19.30;74.70;;;;;;6062883;23;20383;-82
2023/06/02 09:50:38;;;;;;;5.30;4.80;;;26.60;50.50;;;;;;6088969;23;20381;-79
2023/06/02 09:53:07;;;;;;;6.60;5.23;;;26.80;52.40;;;;;;6065753;23;20377;-79
2023/06/02 09:55:36;;;;;;;6.43;5.78;;;26.70;49.90;;;;;;6065778;23;20402;-82
2023/06/02 09:58:05;;;;;;;5.65;4.85;;;26.60;49.90;;;;;;6064550;23;20381;-82
2023/06/02 10:00:32;;;;;;;4.75;4.00;;;26.60;51.30;;;;;;6064021;23;20389;-82
2023/06/02 10:03:00;;;;;;;5.03;3.33;;;26.60;51.00;;;;;;6063701;23;20392;-82
2023/06/02 10:05:28;;;;;;;3.20;2.90;;;26.90;53.50;;;;;;6037118;23;20383;-82
2023/06/02 10:08:18;;;;;;;4.82;4.03;;;27.10;51.50;;;;;;6035466;23;20722;-82
2023/06/02 10:11:13;;;;;;;4.43;4.03;;;27.40;49.40;;;;;;6036682;23;20399;-81
2023/06/02 10:14:23;;;;;;;4.70;3.43;;;27.50;49.10;;;;;;6037412;23;20391;-82
2023/06/02 10:17:01;;;;;;;4.90;3.50;;;27.60;48.40;;;;;;6062013;23;20442;-81
2023/06/02 10:20:20;;;;;;;4.80;3.70;;;27.70;49.10;;;;;;6012436;23;20387;-81
2023/06/02 10:23:13;;;;;;;5.30;3.83;;;27.60;47.60;;;;;;5989267;23;20383;-81
2023/06/02 10:26:06;;;;;;;3.20;2.90;;;27.60;47.30;;;;;;6036164;23;20387;-82
2023/06/02 10:28:35;;;;;;;4.68;3.45;;;27.70;48.50;;;;;;6000651;23;20872;-80
2023/06/02 10:31:11;;;;;;;2.80;2.60;;;28.10;49.10;;;;;;6034959;23;20390;-80
2023/06/02 10:33:43;;;;;;;4.90;3.50;;;28.40;47.80;;;;;;6036581;23;20438;-82
2023/06/02 10:36:12;;;;;;;3.03;2.40;;;28.40;46.60;;;;;;6059897;23;20391;-82
2023/06/02 10:38:39;;;;;;;3.33;2.65;;;28.40;46.70;;;;;;6036060;23;20391;-81
2023/06/02 10:41:08;;;;;;;2.87;2.60;;;28.50;45.10;;;;;;6036503;23;20381;-81
2023/06/02 10:43:35;;;;;;;2.95;2.70;;;28.40;45.00;;;;;;6061758;23;20519;-81
2023/06/02 10:46:16;;;;;;;3.72;3.08;;;28.40;46.70;;;;;;6023691;23;20395;-82
2023/06/02 10:48:44;;;;;;;3.03;2.77;;;28.50;45.40;;;;;;6036795;23;20390;-80
2023/06/02 10:51:14;;;;;;;2.97;2.67;;;28.60;45.90;;;;;;6060600;23;20883;-82
2023/06/02 10:54:07;;;;;;;2.73;2.20;;;28.80;44.80;;;;;;6036139;23;20446;-82
2023/06/02 10:56:40;;;;;;;3.03;2.72;;;29.10;45.50;;;;;;6035659;23;20386;-82
2023/06/02 10:59:08;;;;;;;3.40;3.10;;;29.30;46.20;;;;;;6035429;23;20422;-82
2023/06/02 11:01:49;;;;;;;2.58;2.38;;;29.10;45.00;;;;;;6034534;23;20454;-82
2023/06/02 11:04:44;;;;;;;2.72;2.50;;;29.00;44.90;;;;;;6059108;23;20383;-81
2023/06/02 11:07:26;;;;;;;4.50;2.42;;;29.00;42.70;;;;;;6033530;23;20383;-82
2023/06/02 11:09:56;;;;;;;2.97;2.42;;;29.00;43.80;;;;;;6030458;23;20387;-81
2023/06/02 11:12:54;;;;;;;3.40;2.60;;;29.20;44.40;;;;;;6036163;23;20913;-81
2023/06/02 11:15:24;;;;;;;3.97;2.78;;;29.40;43.60;;;;;;6035960;23;20390;-80
2023/06/02 11:17:53;;;;;;;4.40;3.93;;;29.40;41.80;;;;;;6036131;23;20391;-81
2023/06/02 11:20:34;;;;;;;3.90;3.33;;;29.40;44.30;;;;;;6037520;23;20378;-82
2023/06/02 11:23:05;;;;;;;4.40;3.65;;;29.50;45.10;;;;;;6037178;23;20936;-81
2023/06/02 11:25:32;;;;;;;4.55;3.63;;;29.50;44.20;;;;;;6037816;23;21189;-81
2023/06/02 11:27:59;;;;;;;4.07;3.67;;;29.40;44.30;;;;;;6038151;23;21162;-82
2023/06/02 11:30:28;;;;;;;3.17;2.80;;;29.30;44.60;;;;;;6037320;23;20691;-82
2023/06/02 11:32:55;;;;;;;3.80;3.03;;;29.30;41.80;;;;;;6038003;23;20411;-81
2023/06/02 11:35:25;;;;;;;3.78;2.47;;;29.30;41.50;;;;;;6061169;23;20389;-81
2023/06/02 11:38:11;;;;;;;3.70;2.92;;;29.20;42.10;;;;;;6037923;23;20391;-82
2023/06/02 11:40:38;;;;;;;2.67;2.40;;;29.20;42.00;;;;;;6037270;23;20390;-80
2023/06/02 11:43:05;;;;;;;4.27;3.87;;;29.40;42.10;;;;;;6014573;23;20458;-82
2023/06/02 11:45:32;;;;;;;3.40;3.10;;;29.60;43.10;;;;;;6061847;23;20405;-83
2023/06/02 11:48:01;;;;;;;2.75;2.55;;;29.60;41.60;;;;;;6038406;23;20387;-80
2023/06/02 11:50:31;;;;;;;4.80;3.00;;;29.40;40.90;;;;;;6033979;23;20422;-79
2023/06/02 11:53:00;;;;;;;3.50;2.80;;;29.30;41.70;;;;;;6014526;23;20387;-80
2023/06/02 11:55:34;;;;;;;4.30;3.88;;;29.40;42.90;;;;;;6036990;23;20383;-79
2023/06/02 11:58:30;;;;;;;2.97;2.65;;;29.40;43.30;;;;;;6038007;23;20390;-80
2023/06/02 12:01:08;;;;;;;3.63;3.13;;;29.50;41.60;;;;;;6019723;23;20375;-80
2023/06/02 12:03:36;;;;;;;4.25;3.75;;;29.50;43.20;;;;;;6036340;23;20884;-80
2023/06/02 12:06:13;;;;;;;4.77;4.33;;;29.60;42.40;;;;;;6049317;23;20892;-80
2023/06/02 12:08:44;;;;;;;3.80;3.45;;;29.80;42.80;;;;;;6037607;23;20391;-80
2023/06/02 12:11:15;;;;;;;4.43;3.88;;;30.10;42.50;;;;;;6060249;23;20434;-81
2023/06/02 12:13:59;;;;;;;4.40;3.20;;;30.00;40.10;;;;;;6038122;23;20389;-80
2023/06/02 12:16:26;;;;;;;3.03;2.67;;;30.00;41.70;;;;;;6037659;23;20965;-80
2023/06/02 12:18:55;;;;;;;4.82;3.03;;;30.20;43.20;;;;;;6037544;23;20395;-79
2023/06/02 12:21:28;;;;;;;6.05;4.13;;;30.30;41.70;;;;;;6036765;23;20769;-80
2023/06/02 12:23:57;;;;;;;6.13;3.65;;;30.30;41.00;;;;;;6014895;23;20387;-80
2023/06/02 12:26:25;;;;;;;4.78;3.83;;;30.20;41.70;;;;;;6036978;23;20391;-82
2023/06/02 12:28:55;;;;;;;4.97;4.47;;;30.10;42.00;;;;;;6037982;23;20378;-80
2023/06/02 12:31:23;;;;;;;4.10;3.70;;;29.90;40.80;;;;;;6037131;23;20380;-80
2023/06/02 12:33:51;;;;;;;3.95;3.38;;;29.60;42.00;;;;;;6036690;23;20442;-80
2023/06/02 12:36:18;;;;;;;4.35;3.53;;;29.50;43.00;;;;;;6013276;23;20765;-80
2023/06/02 12:38:46;;;;;;;3.65;2.80;;;29.50;43.00;;;;;;6038042;23;20725;-80
2023/06/02 12:41:14;;;;;;;2.55;2.35;;;29.60;43.10;;;;;;6036168;23;20398;-81
2023/06/02 12:43:41;;;;;;;3.55;2.33;;;29.80;41.80;;;;;;6023778;23;20391;-80
2023/06/02 12:46:11;;;;;;;4.00;2.53;;;29.80;39.20;;;;;;6036637;23;20391;-80
2023/06/02 12:48:39;;;;;;;3.20;2.25;;;29.80;38.80;;;;;;6037200;23;20387;-80
2023/06/02 12:51:09;;;;;;;3.08;2.45;;;29.90;39.80;;;;;;6036360;23;20390;-80
2023/06/02 12:53:37;;;;;;;3.20;2.15;;;30.10;37.80;;;;;;6002939;23;20412;-80
2023/06/02 12:56:04;;;;;;;4.50;2.20;;;30.20;38.00;;;;;;6037821;23;20765;-81
2023/06/02 12:58:32;;;;;;;2.15;1.95;;;30.10;36.70;;;;;;6036524;23;20465;-81
2023/06/02 13:01:03;;;;;;;2.50;2.30;;;29.90;37.70;;;;;;6062836;23;20895;-81
2023/06/02 13:03:31;;;;;;;3.28;2.05;;;30.00;37.00;;;;;;5989743;23;20476;-80
2023/06/02 13:06:08;;;;;;;3.08;2.22;;;30.10;38.20;;;;;;6016502;23;20695;-80
2023/06/02 13:08:40;;;;;;;3.22;2.20;;;30.30;37.20;;;;;;6061727;23;20413;-80
2023/06/02 13:11:07;;;;;;;2.92;2.30;;;30.40;36.90;;;;;;6014291;23;20383;-80
2023/06/02 13:13:37;;;;;;;2.13;1.92;;;30.60;37.30;;;;;;6036536;23;20383;-80
2023/06/02 13:16:05;;;;;;;2.50;2.30;;;30.70;37.60;;;;;;6033956;23;20386;-80
2023/06/02 13:18:33;;;;;;;2.25;2.03;;;30.80;36.60;;;;;;6037014;23;20387;-80
2023/06/02 13:21:00;;;;;;;3.65;2.00;;;30.80;36.20;;;;;;6036303;23;20375;-79
2023/06/02 13:23:27;;;;;;;2.38;1.90;;;30.80;36.30;;;;;;6037299;23;20747;-80
2023/06/02 13:25:59;;;;;;;3.08;2.50;;;30.80;35.60;;;;;;6033487;23;20450;-80
2023/06/02 13:28:27;;;;;;;2.63;1.95;;;30.70;35.90;;;;;;6034326;23;20387;-80
2023/06/02 13:30:54;;;;;;;2.17;1.98;;;30.90;36.80;;;;;;6033927;23;20711;-80
2023/06/02 13:33:22;;;;;;;3.58;2.03;;;31.10;35.90;;;;;;6056704;23;20447;-80
2023/06/02 13:35:49;;;;;;;2.85;2.00;;;31.10;35.60;;;;;;6058681;23;20442;-80
2023/06/02 13:38:16;;;;;;;3.97;2.40;;;31.20;35.10;;;;;;6033450;23;20387;-80
2023/06/02 13:40:44;;;;;;;3.47;2.00;;;31.30;35.90;;;;;;6013245;23;20387;-80
2023/06/02 13:43:12;;;;;;;2.55;2.35;;;31.10;35.90;;;;;;6060192;23;20876;-80
2023/06/02 13:45:39;;;;;;;2.70;2.17;;;31.20;36.30;;;;;;6009448;23;20398;-80
2023/06/02 13:48:08;;;;;;;2.88;2.67;;;31.30;35.90;;;;;;6033793;23;20770;-80
2023/06/02 13:50:35;;;;;;;2.97;2.65;;;31.30;34.90;;;;;;6034804;23;20379;-81
2023/06/02 13:53:07;;;;;;;3.35;2.20;;;31.20;35.50;;;;;;6022608;23;20392;-81
2023/06/02 13:55:35;;;;;;;2.40;2.20;;;31.20;35.30;;;;;;6034328;23;20375;-81
2023/06/02 13:58:04;;;;;;;2.70;2.50;;;31.30;35.60;;;;;;6000150;23;20402;-80
2023/06/02 14:00:31;;;;;;;2.75;2.20;;;31.40;35.90;;;;;;6057488;23;20385;-80
2023/06/02 14:03:01;;;;;;;2.00;1.80;;;31.70;36.00;;;;;;6031014;23;20797;-81
2023/06/02 14:05:35;;;;;;;2.60;2.07;;;32.00;37.00;;;;;;6055601;23;20389;-81
2023/06/02 14:08:02;;;;;;;2.17;1.98;;;32.10;36.70;;;;;;6035092;23;20387;-81
2023/06/02 14:10:29;;;;;;;3.35;2.50;;;32.30;35.70;;;;;;6032126;23;20378;-81
2023/06/02 14:12:56;;;;;;;2.83;2.15;;;32.50;35.50;;;;;;6056263;23;20387;-80
2023/06/02 14:15:23;;;;;;;3.20;2.50;;;32.70;35.00;;;;;;6035291;23;20383;-80
2023/06/02 14:17:51;;;;;;;2.55;2.00;;;32.90;34.40;;;;;;6034811;23;20391;-82
2023/06/02 14:20:18;;;;;;;3.08;2.17;;;32.90;37.50;;;;;;6061712;23;20389;-82
2023/06/02 14:22:53;;;;;;;3.88;2.35;;;32.80;39.60;;;;;;6048345;23;20412;-81
2023/06/02 14:25:20;;;;;;;2.65;2.30;;;32.40;38.90;;;;;;6031249;23;20383;-81
2023/06/02 14:27:47;;;;;;;3.53;2.60;;;32.00;39.50;;;;;;6011940;23;20386;-81
2023/06/02 14:30:24;;;;;;;4.30;2.63;;;31.70;40.10;;;;;;6036380;23;20387;-80
2023/06/02 14:32:54;;;;;;;2.88;2.55;;;31.30;40.40;;;;;;6059584;23;20455;-81
2023/06/02 14:35:23;;;;;;;3.08;2.78;;;31.00;41.60;;;;;;6036236;23;20757;-81
2023/06/02 14:37:52;;;;;;;3.28;2.63;;;30.50;42.00;;;;;;6035947;23;20447;-83
2023/06/02 14:40:22;;;;;;;3.65;2.50;;;29.90;43.30;;;;;;6012855;23;20383;-83
2023/06/02 14:42:49;;;;;;;3.13;2.78;;;29.50;45.50;;;;;;6035853;23;20397;-81
2023/06/02 14:45:19;;;;;;;3.20;2.80;;;29.10;46.30;;;;;;6013265;23;20385;-81
2023/06/02 14:47:47;;;;;;;3.55;3.10;;;28.70;46.70;;;;;;6036446;23;20918;-81
2023/06/02 14:50:15;;;;;;;3.13;2.60;;;28.40;46.70;;;;;;6030067;23;20484;-82
2023/06/02 14:52:45;;;;;;;3.92;2.75;;;28.20;47.40;;;;;;6031962;23;20452;-83
2023/06/02 14:55:13;;;;;;;3.60;2.60;;;28.00;48.00;;;;;;6029919;23;20468;-82
2023/06/02 14:57:43;;;;;;;4.18;2.95;;;27.70;47.90;;;;;;6033382;23;20407;-87
2023/06/02 15:00:10;;;;;;;3.10;2.30;;;27.60;50.10;;;;;;6031540;23;20389;-82
2023/06/02 15:02:38;;;;;;;3.45;2.72;;;27.30;49.90;;;;;;6031127;23;20941;-83
2023/06/02 15:05:07;;;;;;;2.90;2.60;;;27.20;50.30;;;;;;6021646;23;20801;-85
2023/06/02 15:07:38;;;;;;;5.40;2.97;;;27.10;51.30;;;;;;6029432;23;20456;-80
2023/06/02 15:10:08;;;;;;;4.40;2.70;;;27.00;51.20;;;;;;6055124;23;20412;-86
2023/06/02 15:12:38;;;;;;;3.63;2.72;;;26.80;51.80;;;;;;6030617;23;20384;-82
2023/06/02 15:15:06;;;;;;;4.20;2.97;;;26.70;52.30;;;;;;6031139;23;20389;-82
2023/06/02 15:17:33;;;;;;;5.22;3.20;;;26.70;53.50;;;;;;6030804;23;20875;-82
2023/06/02 15:20:02;;;;;;;5.10;3.70;;;26.60;52.80;;;;;;6028128;23;20440;-80
2023/06/02 15:22:33;;;;;;;3.95;3.20;;;26.50;52.60;;;;;;6032501;23;20392;-84
2023/06/02 15:25:03;;;;;;;5.85;3.17;;;26.40;53.80;;;;;;6018249;23;20897;-83
2023/06/02 15:27:38;;;;;;;3.58;2.90;;;26.40;54.20;;;;;;6049633;23;20388;-83
2023/06/02 15:30:08;;;;;;;4.25;2.78;;;26.40;53.40;;;;;;6028158;23;20448;-81
2023/06/02 15:32:35;;;;;;;4.00;3.10;;;26.60;53.50;;;;;;6005109;23;20407;-81
2023/06/02 15:35:05;;;;;;;4.32;2.60;;;26.80;53.30;;;;;;6027422;23;20467;-81
2023/06/02 15:37:37;;;;;;;2.60;2.40;;;27.10;53.10;;;;;;6031227;23;20456;-81
2023/06/02 15:40:06;;;;;;;5.70;3.13;;;27.40;52.10;;;;;;6030247;23;20393;-86
2023/06/02 15:42:34;;;;;;;2.92;2.60;;;27.60;52.70;;;;;;6031958;23;20384;-84
2023/06/02 15:45:05;;;;;;;3.08;2.83;;;27.70;50.50;;;;;;6032044;23;20894;-80
2023/06/02 15:47:33;;;;;;;4.30;2.50;;;27.70;49.40;;;;;;6031223;23;20715;-81
2023/06/02 15:50:02;;;;;;;3.75;2.45;;;27.80;49.10;;;;;;6030794;23;20543;-82
2023/06/02 15:52:29;;;;;;;4.15;2.63;;;27.80;48.80;;;;;;6031319;23;20381;-82
2023/06/02 15:54:59;;;;;;;3.95;2.47;;;27.80;48.50;;;;;;6054334;23;20379;-84
2023/06/02 15:57:26;;;;;;;4.87;2.57;;;27.80;47.90;;;;;;6033037;23;20710;-86
2023/06/02 16:00:00;;;;;;;4.70;2.50;;;27.70;48.10;;;;;;6029805;23;20411;-84
2023/06/02 16:02:27;;;;;;;4.10;2.55;;;27.70;48.10;;;;;;6031707;23;20644;-84
2023/06/02 16:04:56;;;;;;;3.45;2.20;;;27.60;48.30;;;;;;6030934;23;20375;-86
2023/06/02 16:07:25;;;;;;;5.03;2.70;;;27.40;48.70;;;;;;6035064;23;20401;-82
2023/06/02 16:09:53;;;;;;;3.33;2.45;;;27.30;48.50;;;;;;6031265;23;20745;-84
2023/06/02 16:12:20;;;;;;;3.22;2.45;;;27.00;48.40;;;;;;6032355;23;20463;-85
2023/06/02 16:14:48;;;;;;;3.35;2.20;;;26.80;49.40;;;;;;6032104;23;20476;-85
2023/06/02 16:17:17;;;;;;;3.90;2.40;;;26.60;50.10;;;;;;6018565;23;20767;-84
2023/06/02 16:19:45;;;;;;;2.60;2.23;;;26.40;50.80;;;;;;6032828;23;20401;-83
2023/06/02 16:22:16;;;;;;;3.83;2.20;;;26.20;51.00;;;;;;6031133;23;20468;-84
2023/06/02 16:24:43;;;;;;;3.77;2.17;;;26.00;51.20;;;;;;6033882;23;20389;-81
2023/06/02 16:27:11;;;;;;;4.07;2.47;;;26.00;51.30;;;;;;6032550;23;20440;-82
2023/06/02 16:29:38;;;;;;;3.20;2.40;;;25.90;52.00;;;;;;6033306;23;20515;-83
2023/06/02 16:32:06;;;;;;;3.40;2.40;;;25.90;52.70;;;;;;6031836;23;20392;-83
2023/06/02 16:34:34;;;;;;;4.00;2.60;;;26.00;52.00;;;;;;6031516;23;20384;-83
2023/06/02 16:37:04;;;;;;;4.60;2.13;;;26.10;51.00;;;;;;6029701;23;20395;-80
2023/06/02 16:39:33;;;;;;;2.40;1.90;;;26.20;50.20;;;;;;6032490;23;20772;-82
2023/06/02 16:42:04;;;;;;;2.47;1.90;;;26.40;50.60;;;;;;6008958;23;20396;-81
2023/06/02 16:44:33;;;;;;;3.97;1.87;;;26.40;49.30;;;;;;6032947;23;20385;-81
2023/06/02 16:47:00;;;;;;;2.13;1.90;;;26.50;48.20;;;;;;6033167;23;20730;-80
2023/06/02 16:49:37;;;;;;;2.35;2.05;;;26.50;48.90;;;;;;6031458;23;20942;-81
2023/06/02 16:52:07;;;;;;;3.10;1.93;;;26.60;48.20;;;;;;6032498;23;20392;-81
2023/06/02 16:54:34;;;;;;;3.90;1.85;;;26.60;48.70;;;;;;6031847;23;20389;-83
2023/06/02 16:57:02;;;;;;;3.70;2.40;;;26.60;48.70;;;;;;6033000;23;20384;-81
2023/06/02 16:59:36;;;;;;;3.63;2.22;;;26.50;48.80;;;;;;6021509;23;20423;-82
2023/06/02 17:02:03;;;;;;;2.90;2.00;;;26.50;49.00;;;;;;6032353;23;20419;-81
2023/06/02 17:04:31;;;;;;;2.73;1.87;;;26.50;48.20;;;;;;6032381;23;20392;-82
2023/06/02 17:07:01;;;;;;;3.30;1.77;;;26.60;48.10;;;;;;6033306;23;20389;-80
2023/06/02 17:09:28;;;;;;;2.20;1.58;;;26.70;47.50;;;;;;6028946;23;20389;-81
2023/06/02 17:11:55;;;;;;;2.22;1.77;;;26.90;47.10;;;;;;6032212;23;20865;-81
2023/06/02 17:14:23;;;;;;;3.47;1.83;;;26.90;46.90;;;;;;6032429;23;20401;-81
2023/06/02 17:16:50;;;;;;;4.05;2.10;;;26.80;47.00;;;;;;6008159;23;20381;-81
2023/06/02 17:19:19;;;;;;;4.57;2.07;;;26.60;47.50;;;;;;6032566;23;20463;-81
2023/06/02 17:21:47;;;;;;;5.35;2.08;;;26.50;47.80;;;;;;6032080;23;20501;-80
2023/06/02 17:24:16;;;;;;;2.95;2.00;;;26.30;48.40;;;;;;6032168;23;20756;-80
2023/06/02 17:26:43;;;;;;;1.75;1.63;;;26.20;47.90;;;;;;6029544;23;20389;-80
2023/06/02 17:29:16;;;;;;;2.88;1.98;;;26.10;48.40;;;;;;6032763;23;20376;-81
2023/06/02 17:31:44;;;;;;;2.30;1.50;;;26.10;48.50;;;;;;6021202;23;20385;-82
2023/06/02 17:34:11;;;;;;;2.13;1.92;;;26.00;48.40;;;;;;6008347;23;20380;-80
2023/06/02 17:36:41;;;;;;;1.95;1.85;;;25.90;48.90;;;;;;6032487;23;20440;-79
2023/06/02 17:39:09;;;;;;;2.58;1.88;;;25.80;49.30;;;;;;6033033;23;20455;-82
2023/06/02 17:41:37;;;;;;;2.80;1.80;;;25.70;49.00;;;;;;6032260;23;20388;-81
2023/06/02 17:44:04;;;;;;;2.05;1.85;;;25.60;49.40;;;;;;6031893;23;20380;-79
2023/06/02 17:46:32;;;;;;;2.65;2.30;;;25.50;49.80;;;;;;6031907;23;20948;-79
2023/06/02 17:49:06;;;;;;;4.10;1.95;;;25.40;50.00;;;;;;6030274;23;20820;-81
2023/06/02 17:51:35;;;;;;;2.50;1.63;;;25.40;50.10;;;;;;6032148;23;20385;-80
2023/06/02 17:54:05;;;;;;;2.45;1.65;;;25.30;50.70;;;;;;6031719;23;20396;-81
2023/06/02 17:56:36;;;;;;;2.58;1.70;;;25.20;50.60;;;;;;6032055;23;20392;-81
2023/06/02 17:59:06;;;;;;;3.92;1.70;;;25.20;50.60;;;;;;6031348;23;20400;-80
2023/06/02 18:01:35;;;;;;;4.30;1.70;;;25.10;49.90;;;;;;6033248;23;20389;-82
2023/06/02 18:04:02;;;;;;;2.65;1.70;;;25.00;50.00;;;;;;6031482;23;20392;-81
2023/06/02 18:06:30;;;;;;;3.20;1.80;;;24.90;50.80;;;;;;6030727;23;20381;-81
2023/06/02 18:08:57;;;;;;;2.28;1.70;;;24.90;50.90;;;;;;6032827;23;20387;-82
2023/06/02 18:11:25;;;;;;;1.75;1.42;;;24.70;51.40;;;;;;6031261;23;20385;-83
2023/06/02 18:13:55;;;;;;;3.05;1.83;;;24.60;51.00;;;;;;6031436;23;20478;-81
2023/06/02 18:16:25;;;;;;;1.90;1.45;;;24.50;51.00;;;;;;6029845;23;20380;-82
2023/06/02 18:18:52;;;;;;;2.50;1.98;;;24.40;51.40;;;;;;6031519;23;20456;-79
2023/06/02 18:21:19;;;;;;;1.92;1.75;;;24.30;51.60;;;;;;6032304;23;20563;-81
2023/06/02 18:23:48;;;;;;;2.13;1.50;;;24.20;51.90;;;;;;6055516;23;20380;-81
2023/06/02 18:26:15;;;;;;;2.00;1.67;;;24.10;52.40;;;;;;6031033;23;20712;-80
2023/06/02 18:28:45;;;;;;;2.40;1.42;;;24.10;53.00;;;;;;6031232;23;20723;-80
2023/06/02 18:31:15;;;;;;;2.30;1.60;;;23.90;54.30;;;;;;6029441;23;20741;-80
2023/06/02 18:33:44;;;;;;;2.33;1.55;;;23.80;54.50;;;;;;6030087;23;20391;-82
2023/06/02 18:36:13;;;;;;;2.37;1.70;;;23.70;54.20;;;;;;6031192;23;20867;-82
2023/06/02 18:38:41;;;;;;;2.20;1.50;;;23.70;52.90;;;;;;6031294;23;20915;-83
2023/06/02 18:41:08;;;;;;;1.97;1.50;;;23.60;52.60;;;;;;6032062;23;20452;-82
2023/06/02 18:43:38;;;;;;;3.40;1.50;;;23.60;52.10;;;;;;6031468;23;20388;-83
2023/06/02 18:46:18;;;;;;;2.33;1.70;;;23.60;52.40;;;;;;6032228;23;20732;-81
2023/06/02 18:48:45;;;;;;;3.43;1.50;;;23.60;52.60;;;;;;6032632;23;20420;-80
2023/06/02 18:51:13;;;;;;;2.38;1.63;;;23.50;52.30;;;;;;6036894;23;20391;-80
2023/06/02 18:53:41;;;;;;;2.35;1.50;;;23.50;52.90;;;;;;6033755;23;20703;-80
2023/06/02 18:56:08;;;;;;;1.63;1.53;;;23.40;53.00;;;;;;6036899;23;20721;-81
2023/06/02 18:58:40;;;;;;;2.10;1.40;;;23.40;53.20;;;;;;6036346;23;20869;-80
2023/06/02 19:01:10;;;;;;;1.80;1.40;;;23.40;52.70;;;;;;6036337;23;20387;-79
2023/06/02 19:03:38;;;;;;;1.73;1.10;;;23.40;53.40;;;;;;6034992;23;20439;-80
2023/06/02 19:06:06;;;;;;;2.20;1.30;;;23.30;53.70;;;;;;6036863;23;20402;-80
2023/06/02 19:08:36;;;;;;;1.50;1.40;;;23.30;52.90;;;;;;6012577;23;20386;-80
2023/06/02 19:11:04;;;;;;;2.60;1.42;;;23.30;53.10;;;;;;6046172;23;20399;-81
2023/06/02 19:13:33;;;;;;;2.00;1.40;;;23.30;53.40;;;;;;6036630;23;20393;-80
2023/06/02 19:16:03;;;;;;;2.43;1.50;;;23.20;54.20;;;;;;6060051;23;20393;-80
2023/06/02 19:18:42;;;;;;;2.13;1.50;;;23.20;54.30;;;;;;6037775;23;20710;-81
2023/06/02 19:21:11;;;;;;;3.25;1.77;;;23.10;55.10;;;;;;6060622;23;20387;-80
2023/06/02 19:23:40;;;;;;;2.33;1.83;;;23.00;55.40;;;;;;6013836;23;20375;-81
2023/06/02 19:26:11;;;;;;;1.92;1.40;;;23.00;55.60;;;;;;6059940;23;20391;-81
2023/06/02 19:28:39;;;;;;;2.50;1.35;;;22.90;55.90;;;;;;6036266;23;20402;-81
2023/06/02 19:31:09;;;;;;;3.45;1.70;;;22.80;55.80;;;;;;6010852;23;20399;-81
2023/06/02 19:33:36;;;;;;;2.33;1.55;;;22.80;56.00;;;;;;6035628;23;20390;-80
2023/06/02 19:36:05;;;;;;;1.95;1.67;;;22.70;56.40;;;;;;6034920;23;20392;-80
2023/06/02 19:38:36;;;;;;;3.08;1.75;;;22.60;57.00;;;;;;6059876;23;20493;-80
2023/06/02 19:41:03;;;;;;;3.80;1.88;;;22.60;57.20;;;;;;6024206;23;20706;-80
2023/06/02 19:43:30;;;;;;;2.28;1.60;;;22.50;57.50;;;;;;6035805;23;20387;-80
2023/06/02 19:45:58;;;;;;;2.53;1.50;;;22.50;58.30;;;;;;6063320;23;20391;-80
2023/06/02 19:48:26;;;;;;;2.03;1.55;;;22.40;58.20;;;;;;6013122;23;20450;-80
2023/06/02 19:50:53;;;;;;;2.95;1.65;;;22.30;58.40;;;;;;6038443;23;20387;-79
2023/06/02 19:53:23;;;;;;;2.25;1.48;;;22.30;58.60;;;;;;6024093;23;20425;-79
2023/06/02 19:55:50;;;;;;;2.90;2.00;;;22.20;59.60;;;;;;6038205;23;20386;-79
2023/06/02 19:58:18;;;;;;;2.70;1.70;;;22.20;59.30;;;;;;6037979;23;20394;-81
2023/06/02 20:00:47;;;;;;;4.28;2.42;;;22.10;59.40;;;;;;6049201;23;20912;-81
2023/06/02 20:03:14;;;;;;;3.05;2.20;;;22.10;60.00;;;;;;6037407;23;20391;-80
2023/06/02 20:05:42;;;;;;;3.70;2.10;;;22.10;60.70;;;;;;6002659;23;20394;-80
2023/06/02 20:08:09;;;;;;;3.88;1.90;;;22.00;60.80;;;;;;6014747;23;20857;-79
2023/06/02 20:10:37;;;;;;;2.97;2.00;;;21.90;61.20;;;;;;6037051;23;20384;-80
2023/06/02 20:13:12;;;;;;;1.90;1.70;;;21.90;61.50;;;;;;6037885;23;20407;-80
2023/06/02 20:15:39;;;;;;;3.58;2.10;;;21.80;62.00;;;;;;6012235;23;20722;-83
2023/06/02 20:18:08;;;;;;;2.38;1.70;;;21.70;61.80;;;;;;6024814;23;20397;-79
2023/06/02 20:20:35;;;;;;;4.40;2.00;;;21.70;62.50;;;;;;6020246;23;20468;-83
2023/06/02 20:23:02;;;;;;;4.13;2.08;;;21.70;62.90;;;;;;6021088;23;20383;-83
2023/06/02 20:25:30;;;;;;;2.40;2.17;;;21.60;62.50;;;;;;6038310;23;20383;-79
2023/06/02 20:28:00;;;;;;;2.75;1.55;;;21.60;63.10;;;;;;6014398;23;20417;-82
2023/06/02 20:30:30;;;;;;;3.08;1.77;;;21.50;63.70;;;;;;6015293;23;20411;-82
2023/06/02 20:33:04;;;;;;;2.28;2.00;;;21.50;63.40;;;;;;6025773;23;20470;-82
2023/06/02 20:35:34;;;;;;;2.45;2.00;;;21.40;64.00;;;;;;6039262;23;20398;-83
2023/06/02 20:38:01;;;;;;;2.72;1.80;;;21.50;63.40;;;;;;6037352;23;20383;-82
2023/06/02 20:40:28;;;;;;;2.35;2.10;;;21.40;63.40;;;;;;6037827;23;20730;-83
2023/06/02 20:42:56;;;;;;;3.50;2.08;;;21.40;63.60;;;;;;6038403;23;20383;-82
2023/06/02 20:45:26;;;;;;;2.50;2.20;;;21.30;64.90;;;;;;6037610;23;20383;-81
2023/06/02 20:47:54;;;;;;;2.33;1.77;;;21.30;64.50;;;;;;6063893;23;20394;-82
2023/06/02 20:50:21;;;;;;;2.45;1.92;;;21.20;65.50;;;;;;6037339;23;20399;-80
2023/06/02 20:52:48;;;;;;;2.38;1.67;;;21.20;65.20;;;;;;6038138;23;20386;-85
2023/06/02 20:55:20;;;;;;;2.75;2.00;;;21.20;64.60;;;;;;6036996;23;20391;-83
2023/06/02 20:57:50;;;;;;;3.37;2.10;;;21.20;65.30;;;;;;6037702;23;20750;-82
2023/06/02 21:00:19;;;;;;;2.80;1.67;;;21.20;65.10;;;;;;6037435;23;20394;-83
2023/06/02 21:02:46;;;;;;;2.55;1.63;;;21.20;64.60;;;;;;6037338;23;20718;-81
2023/06/02 21:05:13;;;;;;;2.53;1.70;;;21.20;63.90;;;;;;6037004;23;20383;-82
2023/06/02 21:07:40;;;;;;;2.42;1.77;;;21.20;63.90;;;;;;6037791;23;20762;-80
2023/06/02 21:10:07;;;;;;;1.90;1.50;;;21.20;63.90;;;;;;6036177;23;20394;-80
2023/06/02 21:12:36;;;;;;;2.53;1.70;;;21.20;63.90;;;;;;6036795;23;20442;-80
2023/06/02 21:15:07;;;;;;;2.72;1.67;;;21.20;63.50;;;;;;6062775;23;20391;-81
2023/06/02 21:17:34;;;;;;;2.33;1.85;;;21.20;63.00;;;;;;6036538;23;20407;-82
2023/06/02 21:20:01;;;;;;;3.50;1.83;;;21.20;63.90;;;;;;6037934;23;20388;-83
2023/06/02 21:22:31;;;;;;;2.75;1.70;;;21.10;64.50;;;;;;6058037;23;20379;-83
2023/06/02 21:24:58;;;;;;;2.90;1.70;;;21.20;64.30;;;;;;6038009;23;20383;-83
2023/06/02 21:27:25;;;;;;;2.80;1.63;;;21.20;63.90;;;;;;6036832;23;20391;-81
2023/06/02 21:29:52;;;;;;;2.60;1.90;;;21.20;63.70;;;;;;6063480;23;20464;-83
2023/06/02 21:32:19;;;;;;;1.73;1.63;;;21.30;63.00;;;;;;6061877;23;20446;-82
2023/06/02 21:34:46;;;;;;;2.25;1.65;;;21.30;62.00;;;;;;6038577;23;20383;-82
2023/06/02 21:37:13;;;;;;;2.47;1.60;;;21.40;61.30;;;;;;6063313;23;20402;-84
2023/06/02 21:39:40;;;;;;;2.10;1.60;;;21.50;60.50;;;;;;6037943;23;20798;-84
2023/06/02 21:42:07;;;;;;;2.90;1.77;;;21.50;61.10;;;;;;6038360;23;20394;-80
2023/06/02 21:44:36;;;;;;;1.80;1.40;;;21.60;59.90;;;;;;6036787;23;20393;-86
2023/06/02 21:47:06;;;;;;;2.35;1.52;;;21.60;59.10;;;;;;6039622;23;20383;-83
2023/06/02 21:49:33;;;;;;;1.83;1.40;;;21.60;59.00;;;;;;6038175;23;20410;-85